Oakfield, Ohio
Current Conditions -  °F | °C
As of 5:32 PM on Friday 31 Oct 2014 (Local Time) from KYNG Reporting Station
Light Rain Light Rain  
Wind Chill: 44°   Ceiling: 2300
Heat Index: 44°   Visibility: 6mi
Dew Point: 39°   Wind: 3mph
Humidity: 82%   Direction: 140°SE
Pressure: 29.86"   Gusts: NA
Location:  41.4555°N, 80.829°W
Report Text: KYNG 312132Z 14003KT 6SM -RA BKN023 OVC032 07/04 A2986 RMK AO2 P0000 T00670039 $
Loading
Personal Weather Stations






























Interactive Weather Map
Tropical Storm Tracking
New forecast layout! Learn more

10-Day Weather Forecast

Advertisements
Track Severe Weather on mobile